Time;durP1;ratioP1;P1;durP2;ratioP2;P2;SDS_P1;SDS_P2;PMS_P1;PMS_P2;Temp;Humidity;BMP_temperature;BMP_pressure;BME280_temperature;BME280_humidity;BME280_pressure;Samples;Min_cycle;Max_cycle;Signal;HPM_P1;HPM_P2
2024/01/20 00:01:20;;;;;;;40.50;14.48;;;-1.60;99.90;;;;;;4986488;28;20042;-65
2024/01/20 00:03:46;;;;;;;31.40;12.10;;;-1.60;99.90;;;;;;4986999;28;20105;-65
2024/01/20 00:06:11;;;;;;;31.25;12.77;;;-1.70;99.90;;;;;;4991671;28;20030;-65
2024/01/20 00:08:37;;;;;;;28.15;11.57;;;-1.70;99.90;;;;;;4991054;28;20022;-65
2024/01/20 00:11:03;;;;;;;29.23;10.73;;;-1.80;99.90;;;;;;4992019;28;20018;-65
2024/01/20 00:13:28;;;;;;;30.83;12.40;;;-1.90;99.90;;;;;;4992012;28;20652;-65
2024/01/20 00:15:54;;;;;;;28.05;11.18;;;-2.00;99.90;;;;;;4987625;28;20404;-65
2024/01/20 00:18:19;;;;;;;26.08;10.23;;;-1.90;99.90;;;;;;4988624;28;20042;-65
2024/01/20 00:20:46;;;;;;;29.25;10.60;;;-1.90;99.90;;;;;;5001079;28;20026;-65
2024/01/20 00:23:12;;;;;;;23.42;9.77;;;-1.90;99.90;;;;;;4991968;28;20157;-66
2024/01/20 00:25:40;;;;;;;28.17;11.15;;;-1.90;99.90;;;;;;4990833;28;20228;-65
2024/01/20 00:28:05;;;;;;;30.88;10.82;;;-2.10;99.90;;;;;;4989927;28;20096;-67
2024/01/20 00:30:31;;;;;;;21.98;9.07;;;-2.10;99.90;;;;;;4991144;28;20054;-65
2024/01/20 00:32:56;;;;;;;22.83;8.95;;;-2.10;99.90;;;;;;4987832;28;20046;-65
2024/01/20 00:35:22;;;;;;;25.58;9.25;;;-2.10;99.90;;;;;;4990613;28;20026;-65
2024/01/20 00:37:47;;;;;;;22.85;9.13;;;-2.00;99.90;;;;;;4990623;28;20026;-65
2024/01/20 00:40:14;;;;;;;28.98;9.05;;;-2.10;99.90;;;;;;4990955;28;20038;-65
2024/01/20 00:42:39;;;;;;;24.95;9.68;;;-2.10;99.90;;;;;;4990159;28;20361;-65
2024/01/20 00:45:06;;;;;;;13.57;5.85;;;-2.10;99.90;;;;;;4990841;28;20339;-65
2024/01/20 00:47:31;;;;;;;22.73;8.85;;;-2.00;99.90;;;;;;4991151;28;20109;-64
2024/01/20 00:49:57;;;;;;;26.52;9.85;;;-2.00;99.90;;;;;;4987534;28;20149;-65
2024/01/20 00:52:23;;;;;;;16.55;6.60;;;-1.90;99.90;;;;;;4989760;28;20018;-65
2024/01/20 00:54:50;;;;;;;22.55;8.35;;;-2.00;99.90;;;;;;4990272;28;20053;-65
2024/01/20 00:57:16;;;;;;;13.98;5.57;;;-2.00;99.90;;;;;;4987318;28;20089;-65
2024/01/20 00:59:41;;;;;;;20.20;8.27;;;-2.00;99.90;;;;;;4988075;28;20030;-65
2024/01/20 01:02:07;;;;;;;19.55;6.90;;;-2.00;99.90;;;;;;4989609;28;20101;-65
2024/01/20 01:04:33;;;;;;;22.70;8.38;;;-2.00;99.90;;;;;;4987903;28;20515;-64
2024/01/20 01:06:58;;;;;;;19.77;7.22;;;-2.00;99.90;;;;;;4990206;28;20050;-64
2024/01/20 01:09:24;;;;;;;14.75;5.70;;;-2.00;99.90;;;;;;4989839;28;20102;-65
2024/01/20 01:11:49;;;;;;;24.30;9.40;;;-2.00;99.90;;;;;;4990187;28;20478;-65
2024/01/20 01:14:15;;;;;;;20.00;7.40;;;-2.00;99.90;;;;;;4990378;28;20098;-65
2024/01/20 01:16:41;;;;;;;21.02;6.70;;;-2.10;99.90;;;;;;4990669;28;20049;-65
2024/01/20 01:19:06;;;;;;;19.90;7.47;;;-2.10;99.90;;;;;;4990382;28;20030;-65
2024/01/20 01:21:32;;;;;;;20.35;8.05;;;-2.10;99.90;;;;;;4990739;28;20026;-64
2024/01/20 01:23:57;;;;;;;13.95;5.50;;;-2.10;99.90;;;;;;4990144;28;20494;-65
2024/01/20 01:26:23;;;;;;;16.33;6.22;;;-2.00;99.90;;;;;;4990714;28;20050;-65
2024/01/20 01:28:49;;;;;;;21.58;7.60;;;-2.00;99.90;;;;;;4987801;28;20488;-65
2024/01/20 01:31:15;;;;;;;17.90;6.47;;;-2.00;99.90;;;;;;4988393;28;20057;-65
2024/01/20 01:33:40;;;;;;;9.52;4.75;;;-2.00;99.90;;;;;;4985952;28;20030;-65
2024/01/20 01:36:06;;;;;;;18.60;6.53;;;-2.10;99.90;;;;;;4990118;28;20106;-66
2024/01/20 01:38:32;;;;;;;18.92;6.78;;;-2.10;99.90;;;;;;4989925;28;20072;-65
2024/01/20 01:40:58;;;;;;;23.80;7.88;;;-2.10;99.90;;;;;;4986161;28;20701;-65
2024/01/20 01:43:23;;;;;;;23.15;7.53;;;-2.20;99.90;;;;;;4989557;28;20069;-65
2024/01/20 01:45:49;;;;;;;18.13;5.20;;;-2.20;99.90;;;;;;4987570;28;20054;-66
2024/01/20 01:48:15;;;;;;;20.77;7.03;;;-2.10;99.90;;;;;;4979118;28;20030;-65
2024/01/20 01:50:41;;;;;;;14.90;6.63;;;-2.10;99.90;;;;;;4990026;28;20533;-66
2024/01/20 01:53:09;;;;;;;13.43;5.38;;;-2.10;99.90;;;;;;4987549;28;20027;-65
2024/01/20 01:55:35;;;;;;;23.67;8.25;;;-2.00;99.90;;;;;;4990147;28;20026;-66
2024/01/20 01:58:03;;;;;;;21.15;8.13;;;-2.00;99.90;;;;;;4991823;28;20258;-66
2024/01/20 02:00:29;;;;;;;18.83;7.38;;;-2.10;99.90;;;;;;4990259;28;20019;-66
2024/01/20 02:02:55;;;;;;;23.65;7.65;;;-2.10;99.90;;;;;;4988581;28;20031;-66
2024/01/20 02:05:21;;;;;;;15.80;6.80;;;-2.10;99.90;;;;;;4990647;28;20033;-66
2024/01/20 02:07:48;;;;;;;18.08;6.75;;;-2.10;99.90;;;;;;4989806;28;20093;-66
2024/01/20 02:10:18;;;;;;;15.63;6.05;;;-2.10;99.90;;;;;;4990684;28;20138;-66
2024/01/20 02:12:44;;;;;;;19.67;7.50;;;-2.10;99.90;;;;;;4989718;28;20033;-66
2024/01/20 02:15:10;;;;;;;18.45;6.95;;;-2.00;99.90;;;;;;4990144;28;20053;-66
2024/01/20 02:17:36;;;;;;;11.43;4.38;;;-2.00;99.90;;;;;;4988356;28;20474;-66
2024/01/20 02:20:02;;;;;;;13.48;4.25;;;-2.00;99.90;;;;;;4987239;28;20117;-66
2024/01/20 02:22:28;;;;;;;23.13;8.13;;;-2.00;99.90;;;;;;4989157;28;20031;-66
2024/01/20 02:24:53;;;;;;;16.38;5.95;;;-2.00;99.90;;;;;;4988742;28;20026;-66
2024/01/20 02:27:19;;;;;;;21.33;6.30;;;-2.00;99.90;;;;;;4987856;28;20111;-66
2024/01/20 02:29:45;;;;;;;15.75;4.68;;;-2.00;99.90;;;;;;4989864;28;20018;-66
2024/01/20 02:32:10;;;;;;;14.07;4.85;;;-2.00;99.90;;;;;;4988338;28;20437;-66
2024/01/20 02:34:39;;;;;;;17.98;7.20;;;-2.10;99.90;;;;;;4987260;28;20119;-66
2024/01/20 02:37:07;;;;;;;11.75;5.00;;;-2.10;99.90;;;;;;4988896;28;20018;-66
2024/01/20 02:39:33;;;;;;;15.05;6.43;;;-2.10;99.90;;;;;;4985833;28;20023;-66
2024/01/20 02:41:58;;;;;;;16.33;6.35;;;-2.00;99.90;;;;;;4986747;28;20376;-66
2024/01/20 02:44:24;;;;;;;12.20;5.13;;;;;;;;;;4990588;28;20053;-67
2024/01/20 02:46:52;;;;;;;14.02;5.90;;;-2.10;99.90;;;;;;4988345;28;20026;-66
2024/01/20 02:49:18;;;;;;;20.65;7.53;;;-2.10;99.90;;;;;;4989741;28;20054;-66
2024/01/20 02:51:43;;;;;;;15.15;6.10;;;-2.10;99.90;;;;;;4987346;28;20022;-66
2024/01/20 02:54:09;;;;;;;15.88;5.15;;;-2.10;99.90;;;;;;4988317;28;20468;-66
2024/01/20 02:56:34;;;;;;;18.63;6.93;;;-2.00;99.90;;;;;;4990097;28;20026;-66
2024/01/20 02:59:00;;;;;;;18.08;6.22;;;-2.00;99.90;;;;;;4989739;28;20543;-66
2024/01/20 03:01:26;;;;;;;17.98;7.95;;;-2.00;99.90;;;;;;4988865;28;20042;-66
2024/01/20 03:03:51;;;;;;;10.45;3.58;;;-2.00;99.90;;;;;;4985880;28;20030;-66
2024/01/20 03:06:17;;;;;;;13.68;4.35;;;-2.10;99.90;;;;;;4988557;28;20121;-66
2024/01/20 03:08:42;;;;;;;20.30;7.00;;;-2.10;99.90;;;;;;4989491;28;20037;-66
2024/01/20 03:11:08;;;;;;;18.45;6.57;;;-2.10;99.90;;;;;;4989335;28;20031;-67
2024/01/20 03:13:33;;;;;;;18.40;6.15;;;-2.30;99.90;;;;;;4984785;28;20076;-66
2024/01/20 03:15:59;;;;;;;18.83;6.60;;;-2.30;99.90;;;;;;4989635;28;20026;-66
2024/01/20 03:18:25;;;;;;;23.90;7.70;;;-2.30;99.90;;;;;;4988122;28;20057;-66
2024/01/20 03:20:50;;;;;;;17.70;5.90;;;-2.40;99.90;;;;;;4988365;28;20026;-65
2024/01/20 03:23:16;;;;;;;17.52;6.60;;;-2.40;99.90;;;;;;4990036;28;20171;-66
2024/01/20 03:25:41;;;;;;;23.08;7.68;;;-2.30;99.90;;;;;;4987802;28;20033;-65
2024/01/20 03:28:07;;;;;;;20.08;7.75;;;-2.40;99.90;;;;;;4991662;28;20466;-66
2024/01/20 03:30:33;;;;;;;12.90;3.58;;;-2.40;99.90;;;;;;4992684;28;20142;-66
2024/01/20 03:32:58;;;;;;;22.63;7.45;;;-2.30;99.90;;;;;;4989062;28;20030;-65
2024/01/20 03:35:24;;;;;;;18.35;5.63;;;-2.40;99.90;;;;;;4993122;28;20026;-66
2024/01/20 03:37:50;;;;;;;17.60;7.03;;;-2.40;99.90;;;;;;4992442;28;20034;-66
2024/01/20 03:40:16;;;;;;;19.30;7.13;;;-2.40;99.90;;;;;;4992348;28;20023;-66
2024/01/20 03:42:41;;;;;;;22.23;8.18;;;-2.40;99.90;;;;;;4993499;28;20027;-66
2024/01/20 03:45:07;;;;;;;20.30;7.38;;;-2.40;99.90;;;;;;4991409;28;20508;-66
2024/01/20 03:47:33;;;;;;;23.20;7.03;;;-2.50;99.90;;;;;;4992740;28;20041;-66
2024/01/20 03:49:58;;;;;;;14.85;6.25;;;-2.50;99.90;;;;;;4991120;28;20485;-66
2024/01/20 03:52:24;;;;;;;17.60;6.50;;;-2.60;99.90;;;;;;4990760;28;20085;-66
2024/01/20 03:54:49;;;;;;;19.60;7.15;;;-2.70;99.90;;;;;;4990707;28;20461;-67
2024/01/20 03:57:15;;;;;;;14.63;5.30;;;-2.60;99.90;;;;;;4993520;28;20014;-66
2024/01/20 03:59:40;;;;;;;11.10;5.25;;;-2.70;99.90;;;;;;4994698;28;20101;-66
2024/01/20 04:02:06;;;;;;;18.08;5.40;;;-2.70;99.90;;;;;;4991117;28;20053;-66
2024/01/20 04:04:32;;;;;;;17.63;5.90;;;-2.50;99.90;;;;;;4991040;28;20498;-65
2024/01/20 04:06:57;;;;;;;17.35;6.32;;;-2.50;99.90;;;;;;4990620;28;20561;-66
2024/01/20 04:09:23;;;;;;;18.17;6.03;;;-2.40;99.90;;;;;;4989456;28;20029;-66
2024/01/20 04:11:49;;;;;;;20.00;7.55;;;-2.50;99.90;;;;;;4988695;28;20029;-66
2024/01/20 04:14:14;;;;;;;14.35;5.97;;;-2.50;99.90;;;;;;4990826;28;20062;-66
2024/01/20 04:16:40;;;;;;;22.02;8.00;;;-2.60;99.90;;;;;;4993020;28;20518;-66
2024/01/20 04:19:05;;;;;;;20.40;7.57;;;-2.60;99.90;;;;;;4991392;28;20023;-66
2024/01/20 04:21:31;;;;;;;19.75;8.02;;;-2.60;99.90;;;;;;4990146;28;20045;-66
2024/01/20 04:23:57;;;;;;;19.52;7.00;;;-2.60;99.90;;;;;;4990208;28;20700;-66
2024/01/20 04:26:22;;;;;;;22.38;7.35;;;-2.60;99.90;;;;;;4992590;28;20035;-66
2024/01/20 04:28:48;;;;;;;18.42;6.55;;;-2.60;99.90;;;;;;4992246;28;20058;-66
2024/01/20 04:31:13;;;;;;;21.85;7.43;;;-2.60;99.90;;;;;;4993069;28;20037;-66
2024/01/20 04:33:40;;;;;;;19.40;6.07;;;-2.60;99.90;;;;;;4991049;28;20148;-66
2024/01/20 04:36:06;;;;;;;18.75;7.80;;;-2.60;99.90;;;;;;4990749;28;20014;-66
2024/01/20 04:38:32;;;;;;;15.23;5.93;;;-2.60;99.90;;;;;;4990222;28;20096;-65
2024/01/20 04:40:57;;;;;;;9.45;4.03;;;-2.60;99.90;;;;;;4988334;28;20400;-65
2024/01/20 04:43:23;;;;;;;17.60;5.90;;;-2.60;99.90;;;;;;4989469;28;20028;-65
2024/01/20 04:45:48;;;;;;;20.70;7.93;;;-2.60;99.90;;;;;;4990638;28;20062;-65
2024/01/20 04:48:16;;;;;;;19.70;5.75;;;-2.50;99.90;;;;;;4988087;28;20065;-64
2024/01/20 04:50:42;;;;;;;20.67;7.78;;;-2.50;99.90;;;;;;4989942;28;20029;-65
2024/01/20 04:53:07;;;;;;;14.18;5.53;;;-2.50;99.90;;;;;;4991009;28;20331;-65
2024/01/20 04:55:33;;;;;;;21.30;5.97;;;-2.60;99.90;;;;;;4991385;28;20084;-64
2024/01/20 04:57:58;;;;;;;19.08;6.53;;;-2.50;99.90;;;;;;4989958;28;20031;-65
2024/01/20 05:00:24;;;;;;;14.82;6.10;;;-2.50;99.90;;;;;;4990610;28;20029;-65
2024/01/20 05:02:49;;;;;;;18.50;7.00;;;-2.50;99.90;;;;;;4987328;28;20041;-64
2024/01/20 05:05:15;;;;;;;21.90;6.53;;;-2.60;99.90;;;;;;4988515;28;20423;-64
2024/01/20 05:07:41;;;;;;;18.23;6.90;;;-2.70;99.90;;;;;;4990333;28;20051;-65
2024/01/20 05:10:06;;;;;;;17.75;7.15;;;-2.80;99.90;;;;;;4989395;28;20374;-65
2024/01/20 05:12:32;;;;;;;18.25;6.53;;;-2.80;99.90;;;;;;4989415;28;20019;-64
2024/01/20 05:14:58;;;;;;;14.27;4.95;;;-2.90;99.90;;;;;;4988653;28;20030;-66
2024/01/20 05:17:23;;;;;;;20.25;7.70;;;-2.90;99.90;;;;;;4990149;28;20027;-65
2024/01/20 05:19:49;;;;;;;21.42;6.53;;;-2.90;99.90;;;;;;4989240;28;20363;-64
2024/01/20 05:22:16;;;;;;;19.02;6.90;;;-3.00;99.90;;;;;;4989676;28;20152;-65
2024/01/20 05:24:42;;;;;;;18.85;8.20;;;-3.00;99.90;;;;;;4989646;28;20052;-65
2024/01/20 05:27:07;;;;;;;10.57;4.22;;;-2.90;99.90;;;;;;4987016;28;20353;-65
2024/01/20 05:29:33;;;;;;;23.48;7.88;;;-2.80;99.90;;;;;;4990403;28;20019;-65
2024/01/20 05:31:59;;;;;;;18.25;6.07;;;-2.70;99.90;;;;;;4987245;28;20077;-65
2024/01/20 05:34:24;;;;;;;12.23;4.45;;;-2.70;99.90;;;;;;4987695;28;20026;-65
2024/01/20 05:36:50;;;;;;;21.33;6.90;;;-2.80;99.90;;;;;;4988170;28;20089;-65
2024/01/20 05:39:15;;;;;;;10.98;4.72;;;-2.90;99.90;;;;;;4989502;28;20028;-65
2024/01/20 05:41:41;;;;;;;18.85;6.57;;;-3.00;99.90;;;;;;4990648;28;20031;-65
2024/01/20 05:44:07;;;;;;;17.45;6.25;;;-3.00;99.90;;;;;;4982158;28;20252;-65
2024/01/20 05:46:33;;;;;;;24.00;7.10;;;-3.10;99.90;;;;;;4986963;28;20115;-65
2024/01/20 05:48:58;;;;;;;17.30;6.13;;;-3.00;99.90;;;;;;4990289;28;20117;-67
2024/01/20 05:51:24;;;;;;;22.83;7.70;;;-3.00;99.90;;;;;;4983878;28;20072;-67
2024/01/20 05:53:50;;;;;;;17.92;6.82;;;-2.90;99.90;;;;;;4987251;28;20140;-66
2024/01/20 05:56:17;;;;;;;18.27;5.75;;;-3.00;99.90;;;;;;4986622;28;20470;-66
2024/01/20 05:58:42;;;;;;;14.50;5.50;;;-3.00;99.90;;;;;;4987293;28;20118;-66
2024/01/20 06:01:11;;;;;;;15.23;5.40;;;-3.10;99.90;;;;;;4976409;28;20110;-66
2024/01/20 06:03:37;;;;;;;16.02;5.00;;;-3.00;99.90;;;;;;4982326;28;20073;-66
2024/01/20 06:06:02;;;;;;;17.48;6.95;;;-3.00;99.90;;;;;;4979329;28;20019;-66
2024/01/20 06:08:28;;;;;;;17.27;5.85;;;-3.00;99.90;;;;;;4982353;28;20494;-67
2024/01/20 06:10:53;;;;;;;21.00;7.05;;;-3.00;99.90;;;;;;4987715;28;20026;-67
2024/01/20 06:13:19;;;;;;;17.05;6.32;;;-3.10;99.90;;;;;;4994199;28;20038;-67
2024/01/20 06:15:45;;;;;;;17.40;6.45;;;-3.00;99.90;;;;;;4991560;28;20034;-70
2024/01/20 06:18:10;;;;;;;18.45;6.60;;;-3.10;99.90;;;;;;4974908;28;20031;-67
2024/01/20 06:20:36;;;;;;;20.42;6.78;;;-3.20;99.90;;;;;;4982058;28;20042;-67
2024/01/20 06:23:01;;;;;;;15.27;5.05;;;-3.10;99.90;;;;;;4981688;28;20030;-67
2024/01/20 06:25:27;;;;;;;18.25;5.53;;;-3.10;99.90;;;;;;4982352;28;20098;-67
2024/01/20 06:27:53;;;;;;;19.17;6.78;;;-3.10;99.90;;;;;;4989944;28;20019;-67
2024/01/20 06:30:18;;;;;;;21.17;6.75;;;-3.10;99.90;;;;;;4979424;28;20113;-67
2024/01/20 06:32:45;;;;;;;21.25;7.65;;;-3.10;99.90;;;;;;4982005;28;20034;-66
2024/01/20 06:35:11;;;;;;;15.85;5.95;;;-3.20;99.90;;;;;;4982394;28;20049;-66
2024/01/20 06:37:36;;;;;;;12.02;5.47;;;-3.10;99.90;;;;;;4977441;28;20223;-66
2024/01/20 06:40:02;;;;;;;12.65;5.38;;;-3.10;99.90;;;;;;4977450;28;20117;-66
2024/01/20 06:42:28;;;;;;;19.48;6.93;;;-3.00;99.90;;;;;;4979894;28;20031;-66
2024/01/20 06:44:54;;;;;;;17.60;6.55;;;-2.90;99.90;;;;;;4975459;28;20027;-66
2024/01/20 06:47:19;;;;;;;24.20;6.85;;;-3.00;99.90;;;;;;4978484;28;20497;-66
2024/01/20 06:49:49;;;;;;;18.00;6.50;;;-3.00;99.90;;;;;;4980934;28;20073;-66
2024/01/20 06:52:15;;;;;;;9.90;3.78;;;-3.00;99.90;;;;;;4981131;28;20105;-66
2024/01/20 06:54:41;;;;;;;17.48;6.32;;;-3.00;99.90;;;;;;4981059;28;20037;-66
2024/01/20 06:57:06;;;;;;;17.40;6.85;;;-2.90;99.90;;;;;;4979560;28;20027;-67
2024/01/20 06:59:32;;;;;;;20.33;6.85;;;-3.00;99.90;;;;;;4983821;28;20023;-65
2024/01/20 07:01:58;;;;;;;18.45;6.60;;;;;;;;;;4982529;28;20434;-65
2024/01/20 07:04:24;;;;;;;17.60;6.40;;;-3.00;99.90;;;;;;4977072;28;20034;-65
2024/01/20 07:06:50;;;;;;;21.70;6.68;;;-3.00;99.90;;;;;;4981754;28;20050;-65
2024/01/20 07:09:15;;;;;;;17.17;6.28;;;-3.10;99.90;;;;;;4986508;28;20026;-65
2024/01/20 07:11:41;;;;;;;17.70;6.47;;;-3.00;99.90;;;;;;4987935;28;20026;-66
2024/01/20 07:14:07;;;;;;;20.75;7.35;;;-3.00;99.90;;;;;;4980600;28;20102;-65
2024/01/20 07:16:32;;;;;;;19.83;6.72;;;-3.00;99.90;;;;;;4982597;28;20068;-66
2024/01/20 07:18:58;;;;;;;17.90;5.95;;;-3.00;99.90;;;;;;4980224;28;20084;-65
2024/01/20 07:21:24;;;;;;;19.67;6.88;;;-3.00;99.90;;;;;;4979959;28;20034;-65
2024/01/20 07:23:49;;;;;;;13.93;4.88;;;-3.10;99.90;;;;;;4983067;28;20034;-65
2024/01/20 07:26:15;;;;;;;12.70;5.40;;;-2.80;99.90;;;;;;4987212;28;20113;-65
2024/01/20 07:28:41;;;;;;;15.88;4.45;;;-2.70;99.90;;;;;;4982035;28;20437;-65
2024/01/20 07:31:06;;;;;;;17.55;6.43;;;-2.60;99.90;;;;;;4985572;28;20025;-65
2024/01/20 07:33:33;;;;;;;13.63;5.18;;;-2.50;99.90;;;;;;4981395;28;20030;-65
2024/01/20 07:35:59;;;;;;;13.80;4.32;;;-2.40;99.90;;;;;;4981023;28;20046;-65
2024/01/20 07:38:25;;;;;;;15.80;5.70;;;-2.40;99.90;;;;;;4979351;28;20083;-66
2024/01/20 07:40:53;;;;;;;21.35;5.85;;;-2.40;99.90;;;;;;4982845;28;20030;-65
2024/01/20 07:43:20;;;;;;;16.00;6.25;;;-2.40;99.90;;;;;;4980319;28;20035;-65
2024/01/20 07:45:46;;;;;;;19.00;6.07;;;-2.30;99.90;;;;;;4982583;28;20022;-65
2024/01/20 07:48:11;;;;;;;14.85;6.40;;;-2.30;99.90;;;;;;4979441;28;20038;-65
2024/01/20 07:50:37;;;;;;;14.02;5.25;;;-2.20;99.90;;;;;;4985413;28;20382;-65
2024/01/20 07:53:03;;;;;;;11.60;4.30;;;-2.30;99.90;;;;;;4982922;28;20402;-66
2024/01/20 07:55:29;;;;;;;17.42;6.30;;;;;;;;;;4981773;28;20117;-66
2024/01/20 07:57:55;;;;;;;17.88;5.88;;;-2.20;99.90;;;;;;4986215;28;20521;-65
2024/01/20 08:00:21;;;;;;;18.02;6.00;;;-2.20;99.90;;;;;;4981311;28;20129;-65
2024/01/20 08:02:47;;;;;;;14.15;5.68;;;-2.20;99.90;;;;;;4983484;28;20023;-65
2024/01/20 08:05:12;;;;;;;16.15;5.20;;;-2.20;99.90;;;;;;4980770;28;20027;-65
2024/01/20 08:07:38;;;;;;;17.75;5.82;;;-2.10;99.90;;;;;;4988575;28;20049;-66
2024/01/20 08:10:04;;;;;;;15.43;5.47;;;-2.10;99.90;;;;;;4980017;28;20030;-65
2024/01/20 08:12:30;;;;;;;17.60;6.10;;;-2.10;99.90;;;;;;4978690;28;20019;-65
2024/01/20 08:14:56;;;;;;;18.08;6.50;;;-2.00;99.90;;;;;;4980614;28;20651;-65
2024/01/20 08:17:22;;;;;;;10.85;4.07;;;-2.00;99.90;;;;;;4978444;28;20176;-65
2024/01/20 08:19:49;;;;;;;17.63;5.93;;;-2.00;99.90;;;;;;4984134;28;20117;-65
2024/01/20 08:22:14;;;;;;;14.48;5.78;;;-2.10;99.90;;;;;;4978319;28;20034;-65
2024/01/20 08:24:40;;;;;;;15.68;5.68;;;-2.10;99.90;;;;;;4981037;28;20031;-65
2024/01/20 08:27:05;;;;;;;10.95;4.15;;;-2.10;99.90;;;;;;4979073;28;20058;-66
2024/01/20 08:29:31;;;;;;;17.30;5.97;;;-2.00;99.90;;;;;;4980211;28;20030;-65
2024/01/20 08:31:57;;;;;;;13.10;5.72;;;-2.00;99.90;;;;;;4980433;28;20026;-65
2024/01/20 08:34:22;;;;;;;15.13;6.43;;;-1.90;99.90;;;;;;4977224;28;20066;-66
2024/01/20 08:36:48;;;;;;;17.95;6.00;;;-1.90;99.90;;;;;;4981698;28;20125;-66
2024/01/20 08:39:16;;;;;;;12.63;3.72;;;-1.90;99.90;;;;;;4984409;28;20676;-65
2024/01/20 08:41:41;;;;;;;14.65;5.30;;;-1.90;99.90;;;;;;4981416;28;20034;-65
2024/01/20 08:44:07;;;;;;;10.48;4.60;;;-1.90;99.90;;;;;;4978240;28;20489;-65
2024/01/20 08:46:33;;;;;;;10.15;4.07;;;-1.80;99.90;;;;;;4980164;28;20041;-66
2024/01/20 08:48:58;;;;;;;16.75;5.68;;;-1.80;99.90;;;;;;4980888;28;20054;-65
2024/01/20 08:51:24;;;;;;;13.10;5.57;;;-1.70;99.90;;;;;;4981866;28;20451;-66
2024/01/20 08:53:49;;;;;;;15.98;4.55;;;-1.70;99.90;;;;;;4988282;28;20109;-65
2024/01/20 08:56:15;;;;;;;19.13;5.80;;;-1.60;99.90;;;;;;4977752;28;20034;-66
2024/01/20 08:58:41;;;;;;;11.95;4.57;;;-1.50;99.90;;;;;;4982494;28;20554;-66
2024/01/20 09:01:07;;;;;;;17.25;4.53;;;-1.30;99.90;;;;;;4979807;28;20423;-65
2024/01/20 09:03:33;;;;;;;12.65;4.68;;;-1.10;99.90;;;;;;4983862;28;20029;-65
2024/01/20 09:05:58;;;;;;;15.10;5.03;;;-0.80;99.90;;;;;;4978419;28;20525;-65
2024/01/20 09:08:24;;;;;;;13.82;4.68;;;-0.60;99.90;;;;;;4979859;28;20031;-66
2024/01/20 09:10:51;;;;;;;13.07;4.75;;;-0.10;99.90;;;;;;4977731;28;20486;-66
2024/01/20 09:13:17;;;;;;;15.25;5.20;;;0.30;99.90;;;;;;4978847;28;20045;-66
2024/01/20 09:15:44;;;;;;;12.75;4.70;;;0.70;99.90;;;;;;4981249;28;20047;-66
2024/01/20 09:18:09;;;;;;;16.30;4.88;;;1.20;99.90;;;;;;4978662;28;20145;-67
2024/01/20 09:20:35;;;;;;;9.30;3.50;;;1.40;99.90;;;;;;4978461;28;20105;-66
2024/01/20 09:23:02;;;;;;;13.98;4.43;;;1.60;99.90;;;;;;4977693;28;20070;-68
2024/01/20 09:25:27;;;;;;;11.73;4.55;;;1.60;99.90;;;;;;4985669;28;20132;-67
2024/01/20 09:27:53;;;;;;;13.60;5.03;;;1.70;99.90;;;;;;4976781;28;20067;-67
2024/01/20 09:30:18;;;;;;;10.00;4.20;;;1.80;99.90;;;;;;4980016;28;20386;-67
2024/01/20 09:32:44;;;;;;;11.45;4.03;;;2.00;99.90;;;;;;4974389;28;20026;-67
2024/01/20 09:35:10;;;;;;;11.70;4.70;;;2.00;99.90;;;;;;4980931;28;20431;-67
2024/01/20 09:37:38;;;;;;;11.70;4.55;;;2.00;99.90;;;;;;4976726;28;20045;-67
2024/01/20 09:40:08;;;;;;;13.15;5.18;;;2.10;99.90;;;;;;4979105;28;20030;-67
2024/01/20 09:42:34;;;;;;;14.82;4.88;;;2.30;99.90;;;;;;4976111;28;20022;-67
2024/01/20 09:45:00;;;;;;;12.05;4.47;;;2.60;99.90;;;;;;4983569;28;20029;-65
2024/01/20 09:47:27;;;;;;;11.27;4.20;;;3.00;99.90;;;;;;4978617;28;20034;-65
2024/01/20 09:49:53;;;;;;;12.20;4.13;;;3.50;99.90;;;;;;4981857;28;20069;-67
2024/01/20 09:52:27;;;;;;;10.52;4.05;;;3.60;99.90;;;;;;4979070;28;20041;-67
2024/01/20 09:55:13;;;;;;;10.73;3.90;;;3.60;99.90;;;;;;4982743;28;20018;-67
2024/01/20 09:57:40;;;;;;;12.30;4.57;;;3.70;99.90;;;;;;4984816;28;20046;-67
2024/01/20 10:00:08;;;;;;;12.02;5.07;;;3.70;99.90;;;;;;4977851;28;20018;-67
2024/01/20 10:02:35;;;;;;;12.13;3.80;;;3.90;99.90;;;;;;4976997;28;20034;-65
2024/01/20 10:05:04;;;;;;;14.63;3.95;;;4.40;99.90;;;;;;4976223;28;20314;-65
2024/01/20 10:07:31;;;;;;;9.18;3.38;;;4.40;99.90;;;;;;4976938;28;20025;-65
2024/01/20 10:09:57;;;;;;;10.15;3.55;;;4.40;99.90;;;;;;4978481;28;20046;-66
2024/01/20 10:12:23;;;;;;;11.10;3.55;;;4.50;99.90;;;;;;4977180;28;20460;-66
2024/01/20 10:14:50;;;;;;;9.57;3.05;;;4.50;99.90;;;;;;4977245;28;20031;-65
2024/01/20 10:17:15;;;;;;;7.05;2.03;;;4.80;99.90;;;;;;4978599;28;20031;-66
2024/01/20 10:19:41;;;;;;;8.93;3.22;;;4.90;99.90;;;;;;4980810;28;20030;-66
2024/01/20 10:22:10;;;;;;;12.43;3.40;;;4.70;99.90;;;;;;4971521;28;20162;-67
2024/01/20 10:24:46;;;;;;;12.20;3.60;;;4.80;99.90;;;;;;4979514;28;20385;-67
2024/01/20 10:27:17;;;;;;;9.82;3.00;;;4.90;99.90;;;;;;4974816;28;20672;-67
2024/01/20 10:29:43;;;;;;;10.20;3.20;;;4.80;99.90;;;;;;4977479;28;20051;-68
2024/01/20 10:32:08;;;;;;;7.65;2.78;;;4.80;99.90;;;;;;4974965;28;20031;-68
2024/01/20 10:34:34;;;;;;;8.57;2.90;;;4.80;99.90;;;;;;4979369;28;20612;-68
2024/01/20 10:37:04;;;;;;;8.05;2.95;;;4.60;99.90;;;;;;4984247;28;20034;-67
2024/01/20 10:39:30;;;;;;;;;;;4.70;99.90;;;;;;4982165;28;20324;-67
2024/01/20 10:41:57;;;;;;;7.07;2.40;;;4.50;99.90;;;;;;4983232;28;19913;-67
2024/01/20 10:44:27;;;;;;;10.15;3.72;;;5.60;99.90;;;;;;4981746;28;20119;-68
2024/01/20 10:46:53;;;;;;;;;;;4.40;99.90;;;;;;4983320;28;20054;-68
2024/01/20 10:49:22;;;;;;;9.55;2.72;;;4.50;99.90;;;;;;4988630;28;20023;-68
2024/01/20 10:51:48;;;;;;;7.75;3.10;;;4.50;99.90;;;;;;4980739;28;20247;-67
2024/01/20 10:54:14;;;;;;;9.00;2.83;;;4.40;99.90;;;;;;4985993;28;20109;-67
2024/01/20 10:56:41;;;;;;;13.18;3.25;;;4.50;99.90;;;;;;4983827;28;20030;-67
2024/01/20 10:59:12;;;;;;;8.00;2.33;;;4.90;99.90;;;;;;4982367;28;20026;-68
2024/01/20 11:01:39;;;;;;;11.65;3.53;;;5.40;99.90;;;;;;4984248;28;20412;-68
2024/01/20 11:04:07;;;;;;;9.82;3.10;;;5.70;99.90;;;;;;4980135;28;20057;-65
2024/01/20 11:06:34;;;;;;;6.95;2.83;;;6.40;98.40;;;;;;4978633;28;20030;-65
2024/01/20 11:09:01;;;;;;;7.07;2.63;;;7.10;95.20;;;;;;4983809;28;20030;-66
2024/01/20 11:11:29;;;;;;;10.13;3.00;;;7.30;95.50;;;;;;4982457;28;20038;-66
2024/01/20 11:13:59;;;;;;;8.43;3.17;;;7.40;93.00;;;;;;4981192;28;20022;-67
2024/01/20 11:16:28;;;;;;;9.13;3.13;;;7.20;94.00;;;;;;4981940;28;20026;-68
2024/01/20 11:19:07;;;;;;;9.63;3.28;;;7.30;95.40;;;;;;4983173;28;20045;-65
2024/01/20 11:21:33;;;;;;;9.13;2.83;;;7.60;93.80;;;;;;4983606;28;20671;-65
2024/01/20 11:24:00;;;;;;;9.35;3.40;;;7.90;92.60;;;;;;4989333;28;20045;-65
2024/01/20 11:26:33;;;;;;;8.85;3.20;;;7.90;92.40;;;;;;4978098;28;20118;-65
2024/01/20 11:29:00;;;;;;;8.20;2.17;;;7.90;91.30;;;;;;4982645;28;20526;-65
2024/01/20 11:31:27;;;;;;;8.73;2.85;;;7.70;91.80;;;;;;4980363;28;20106;-67
2024/01/20 11:33:53;;;;;;;10.52;2.28;;;7.40;93.80;;;;;;4987341;28;20324;-68
2024/01/20 11:36:19;;;;;;;8.63;3.30;;;7.30;92.80;;;;;;4979026;28;20814;-67
2024/01/20 11:38:45;;;;;;;6.70;2.60;;;6.50;94.40;;;;;;4981973;28;20030;-67
2024/01/20 11:41:12;;;;;;;7.53;2.47;;;6.10;96.50;;;;;;4979358;28;20113;-68
2024/01/20 11:43:47;;;;;;;13.07;2.97;;;6.00;97.60;;;;;;4979951;28;20019;-67
2024/01/20 11:46:12;;;;;;;5.70;2.20;;;6.10;97.50;;;;;;4982082;28;20027;-67
2024/01/20 11:48:38;;;;;;;8.07;2.72;;;6.20;96.90;;;;;;4981670;28;20049;-67
2024/01/20 11:51:04;;;;;;;5.93;2.08;;;6.20;97.40;;;;;;4981412;28;20034;-67
2024/01/20 11:53:30;;;;;;;6.25;2.42;;;6.60;95.60;;;;;;4983216;28;20117;-67
2024/01/20 11:56:00;;;;;;;8.18;3.08;;;6.50;96.40;;;;;;4982705;28;20037;-67
2024/01/20 11:58:27;;;;;;;7.55;2.20;;;7.10;95.00;;;;;;4981412;28;20129;-65
2024/01/20 12:00:54;;;;;;;6.50;2.40;;;7.50;93.20;;;;;;4981578;28;20113;-67
2024/01/20 12:03:21;;;;;;;9.85;2.90;;;7.50;92.50;;;;;;4978291;28;20588;-67
2024/01/20 12:05:47;;;;;;;9.80;3.15;;;7.30;93.20;;;;;;4983227;28;20492;-67
2024/01/20 12:08:13;;;;;;;7.32;2.60;;;7.20;93.30;;;;;;4980273;28;20014;-67
2024/01/20 12:10:42;;;;;;;7.82;2.53;;;7.30;92.40;;;;;;4988325;28;20027;-68
2024/01/20 12:13:09;;;;;;;9.00;2.92;;;7.40;93.30;;;;;;4986257;28;20084;-65
2024/01/20 12:15:36;;;;;;;12.95;2.65;;;7.90;91.00;;;;;;4979459;28;20497;-65
2024/01/20 12:18:02;;;;;;;8.05;2.60;;;8.50;89.70;;;;;;4982256;28;20026;-65
2024/01/20 12:20:27;;;;;;;8.98;3.30;;;8.90;83.00;;;;;;4980299;28;20510;-66
2024/01/20 12:23:00;;;;;;;11.32;3.15;;;8.20;88.30;;;;;;4996417;28;20031;-67
2024/01/20 12:25:34;;;;;;;9.43;2.95;;;7.70;91.30;;;;;;4977989;28;20513;-65
2024/01/20 12:28:01;;;;;;;7.45;2.58;;;7.90;91.00;;;;;;4988074;28;20061;-67
2024/01/20 12:30:28;;;;;;;8.73;2.22;;;8.10;87.30;;;;;;4978086;28;20018;-67
2024/01/20 12:32:56;;;;;;;8.48;2.47;;;7.70;89.10;;;;;;4979105;28;20098;-65
2024/01/20 12:35:22;;;;;;;8.13;3.00;;;7.80;90.60;;;;;;4977865;28;20045;-65
2024/01/20 12:37:48;;;;;;;6.20;2.35;;;8.10;84.60;;;;;;4978053;28;20117;-67